sensor_id;sensor_type;location;lat;lon;timestamp;temperature;humidity
22966;DHT22;11649;48.090;9.754;2024-01-30T00:00:24;0.70;99.90
22966;DHT22;11649;48.090;9.754;2024-01-30T00:02:51;0.50;99.90
22966;DHT22;11649;48.090;9.754;2024-01-30T00:05:18;0.00;99.90
22966;DHT22;11649;48.090;9.754;2024-01-30T00:07:45;-0.10;99.90
22966;DHT22;11649;48.090;9.754;2024-01-30T00:10:11;0.00;99.90
22966;DHT22;11649;48.090;9.754;2024-01-30T00:12:38;0.10;99.90
22966;DHT22;11649;48.090;9.754;2024-01-30T00:15:05;0.20;99.90
22966;DHT22;11649;48.090;9.754;2024-01-30T00:17:36;0.30;99.90
22966;DHT22;11649;48.090;9.754;2024-01-30T00:20:04;0.20;99.90
22966;DHT22;11649;48.090;9.754;2024-01-30T00:22:32;0.30;99.90
22966;DHT22;11649;48.090;9.754;2024-01-30T00:24:59;0.10;99.90
22966;DHT22;11649;48.090;9.754;2024-01-30T00:27:26;0.20;99.90
22966;DHT22;11649;48.090;9.754;2024-01-30T00:29:54;0.30;99.90
22966;DHT22;11649;48.090;9.754;2024-01-30T00:32:20;0.30;99.90
22966;DHT22;11649;48.090;9.754;2024-01-30T00:34:47;0.40;99.90
22966;DHT22;11649;48.090;9.754;2024-01-30T00:37:14;0.20;99.90
22966;DHT22;11649;48.090;9.754;2024-01-30T00:39:41;0.20;99.90
22966;DHT22;11649;48.090;9.754;2024-01-30T00:42:08;0.20;99.90
22966;DHT22;11649;48.090;9.754;2024-01-30T00:44:35;0.30;99.90
22966;DHT22;11649;48.090;9.754;2024-01-30T00:47:05;0.50;99.90
22966;DHT22;11649;48.090;9.754;2024-01-30T00:49:32;0.50;99.90
22966;DHT22;11649;48.090;9.754;2024-01-30T00:51:59;0.40;99.90
22966;DHT22;11649;48.090;9.754;2024-01-30T00:54:26;0.30;99.90
22966;DHT22;11649;48.090;9.754;2024-01-30T00:56:53;0.30;99.90
22966;DHT22;11649;48.090;9.754;2024-01-30T00:59:20;0.30;99.90
22966;DHT22;11649;48.090;9.754;2024-01-30T01:01:46;0.30;99.90
22966;DHT22;11649;48.090;9.754;2024-01-30T01:04:13;0.30;99.90
22966;DHT22;11649;48.090;9.754;2024-01-30T01:06:40;0.20;99.90
22966;DHT22;11649;48.090;9.754;2024-01-30T01:09:11;-0.10;99.90
22966;DHT22;11649;48.090;9.754;2024-01-30T01:11:38;-0.20;99.90
22966;DHT22;11649;48.090;9.754;2024-01-30T01:14:05;-0.30;99.90
22966;DHT22;11649;48.090;9.754;2024-01-30T01:16:33;-0.10;99.90
22966;DHT22;11649;48.090;9.754;2024-01-30T01:19:00;-0.10;99.90
22966;DHT22;11649;48.090;9.754;2024-01-30T01:21:27;-0.10;99.90
22966;DHT22;11649;48.090;9.754;2024-01-30T01:23:54;0.00;99.90
22966;DHT22;11649;48.090;9.754;2024-01-30T01:26:21;0.10;99.90
22966;DHT22;11649;48.090;9.754;2024-01-30T01:28:48;0.20;99.90
22966;DHT22;11649;48.090;9.754;2024-01-30T01:31:15;0.20;99.90
22966;DHT22;11649;48.090;9.754;2024-01-30T01:33:42;0.10;99.90
22966;DHT22;11649;48.090;9.754;2024-01-30T01:36:09;0.20;99.90
22966;DHT22;11649;48.090;9.754;2024-01-30T01:38:36;0.10;99.90
22966;DHT22;11649;48.090;9.754;2024-01-30T01:41:03;0.20;99.90
22966;DHT22;11649;48.090;9.754;2024-01-30T01:43:29;0.20;99.90
22966;DHT22;11649;48.090;9.754;2024-01-30T01:45:56;0.10;99.90
22966;DHT22;11649;48.090;9.754;2024-01-30T01:48:23;0.10;99.90
22966;DHT22;11649;48.090;9.754;2024-01-30T01:50:52;0.00;99.90
22966;DHT22;11649;48.090;9.754;2024-01-30T01:53:19;0.10;99.90
22966;DHT22;11649;48.090;9.754;2024-01-30T01:55:47;0.10;99.90
22966;DHT22;11649;48.090;9.754;2024-01-30T01:58:14;-0.10;99.90
22966;DHT22;11649;48.090;9.754;2024-01-30T02:00:42;0.00;99.90
22966;DHT22;11649;48.090;9.754;2024-01-30T02:03:10;0.50;99.90
22966;DHT22;11649;48.090;9.754;2024-01-30T02:05:40;0.70;99.90
22966;DHT22;11649;48.090;9.754;2024-01-30T02:08:08;0.90;99.90
22966;DHT22;11649;48.090;9.754;2024-01-30T02:10:35;1.00;99.90
22966;DHT22;11649;48.090;9.754;2024-01-30T02:13:02;1.00;99.90
22966;DHT22;11649;48.090;9.754;2024-01-30T02:15:29;1.00;99.90
22966;DHT22;11649;48.090;9.754;2024-01-30T02:17:56;0.90;99.90
22966;DHT22;11649;48.090;9.754;2024-01-30T02:20:24;0.60;99.90
22966;DHT22;11649;48.090;9.754;2024-01-30T02:22:54;0.50;99.90
22966;DHT22;11649;48.090;9.754;2024-01-30T02:25:38;0.40;99.90
22966;DHT22;11649;48.090;9.754;2024-01-30T02:28:05;0.30;99.90
22966;DHT22;11649;48.090;9.754;2024-01-30T02:30:32;0.20;99.90
22966;DHT22;11649;48.090;9.754;2024-01-30T02:32:58;0.20;99.90
22966;DHT22;11649;48.090;9.754;2024-01-30T02:35:25;0.20;99.90
22966;DHT22;11649;48.090;9.754;2024-01-30T02:37:52;0.30;99.90
22966;DHT22;11649;48.090;9.754;2024-01-30T02:40:19;0.30;99.90
22966;DHT22;11649;48.090;9.754;2024-01-30T02:42:46;0.40;99.90
22966;DHT22;11649;48.090;9.754;2024-01-30T02:45:13;0.30;99.90
22966;DHT22;11649;48.090;9.754;2024-01-30T02:47:40;0.30;99.90
22966;DHT22;11649;48.090;9.754;2024-01-30T02:50:08;0.30;99.90
22966;DHT22;11649;48.090;9.754;2024-01-30T02:52:35;0.30;99.90
22966;DHT22;11649;48.090;9.754;2024-01-30T02:55:02;0.30;99.90
22966;DHT22;11649;48.090;9.754;2024-01-30T02:57:29;0.30;99.90
22966;DHT22;11649;48.090;9.754;2024-01-30T02:59:56;0.30;99.90
22966;DHT22;11649;48.090;9.754;2024-01-30T03:02:23;0.30;99.90
22966;DHT22;11649;48.090;9.754;2024-01-30T03:04:49;0.20;99.90
22966;DHT22;11649;48.090;9.754;2024-01-30T03:07:16;0.20;99.90
22966;DHT22;11649;48.090;9.754;2024-01-30T03:09:44;0.20;99.90
22966;DHT22;11649;48.090;9.754;2024-01-30T03:12:11;0.30;99.90
22966;DHT22;11649;48.090;9.754;2024-01-30T03:14:37;0.30;99.90
22966;DHT22;11649;48.090;9.754;2024-01-30T03:17:04;0.30;99.90
22966;DHT22;11649;48.090;9.754;2024-01-30T03:19:31;0.30;99.90
22966;DHT22;11649;48.090;9.754;2024-01-30T03:21:58;0.20;99.90
22966;DHT22;11649;48.090;9.754;2024-01-30T03:24:25;0.10;99.90
22966;DHT22;11649;48.090;9.754;2024-01-30T03:26:53;0.00;99.90
22966;DHT22;11649;48.090;9.754;2024-01-30T03:29:20;-0.10;99.90
22966;DHT22;11649;48.090;9.754;2024-01-30T03:31:47;0.00;99.90
22966;DHT22;11649;48.090;9.754;2024-01-30T03:34:14;0.10;99.90
22966;DHT22;11649;48.090;9.754;2024-01-30T03:36:41;0.30;99.90
22966;DHT22;11649;48.090;9.754;2024-01-30T03:39:08;0.70;99.90
22966;DHT22;11649;48.090;9.754;2024-01-30T03:41:34;0.90;99.90
22966;DHT22;11649;48.090;9.754;2024-01-30T03:44:01;1.10;99.90
22966;DHT22;11649;48.090;9.754;2024-01-30T03:46:28;1.20;99.90
22966;DHT22;11649;48.090;9.754;2024-01-30T03:48:55;1.20;99.90
22966;DHT22;11649;48.090;9.754;2024-01-30T03:51:22;1.30;99.90
22966;DHT22;11649;48.090;9.754;2024-01-30T03:53:48;1.40;99.90
22966;DHT22;11649;48.090;9.754;2024-01-30T03:56:15;1.40;99.90
22966;DHT22;11649;48.090;9.754;2024-01-30T03:58:42;1.40;99.90
22966;DHT22;11649;48.090;9.754;2024-01-30T04:01:13;1.40;99.90
22966;DHT22;11649;48.090;9.754;2024-01-30T04:03:41;1.40;99.90
22966;DHT22;11649;48.090;9.754;2024-01-30T04:06:08;1.40;99.90
22966;DHT22;11649;48.090;9.754;2024-01-30T04:08:35;1.50;99.90
22966;DHT22;11649;48.090;9.754;2024-01-30T04:11:05;1.50;99.90
22966;DHT22;11649;48.090;9.754;2024-01-30T04:13:33;1.50;99.90
22966;DHT22;11649;48.090;9.754;2024-01-30T04:16:00;1.50;99.90
22966;DHT22;11649;48.090;9.754;2024-01-30T04:18:30;1.50;99.90
22966;DHT22;11649;48.090;9.754;2024-01-30T04:20:57;1.60;99.90
22966;DHT22;11649;48.090;9.754;2024-01-30T04:23:24;1.50;99.90
22966;DHT22;11649;48.090;9.754;2024-01-30T04:25:50;1.50;99.90
22966;DHT22;11649;48.090;9.754;2024-01-30T04:28:18;1.40;99.90
22966;DHT22;11649;48.090;9.754;2024-01-30T04:30:44;1.40;99.90
22966;DHT22;11649;48.090;9.754;2024-01-30T04:33:11;1.40;99.90
22966;DHT22;11649;48.090;9.754;2024-01-30T04:35:38;1.40;99.90
22966;DHT22;11649;48.090;9.754;2024-01-30T04:38:05;1.40;99.90
22966;DHT22;11649;48.090;9.754;2024-01-30T04:40:32;1.30;99.90
22966;DHT22;11649;48.090;9.754;2024-01-30T04:42:58;1.10;99.90
22966;DHT22;11649;48.090;9.754;2024-01-30T04:45:25;1.00;99.90
22966;DHT22;11649;48.090;9.754;2024-01-30T04:47:52;0.80;99.90
22966;DHT22;11649;48.090;9.754;2024-01-30T04:50:19;0.60;99.90
22966;DHT22;11649;48.090;9.754;2024-01-30T04:52:46;0.50;99.90
22966;DHT22;11649;48.090;9.754;2024-01-30T04:55:12;0.50;99.90
22966;DHT22;11649;48.090;9.754;2024-01-30T04:57:39;0.50;99.90
22966;DHT22;11649;48.090;9.754;2024-01-30T05:00:07;0.50;99.90
22966;DHT22;11649;48.090;9.754;2024-01-30T05:02:34;0.60;99.90
22966;DHT22;11649;48.090;9.754;2024-01-30T05:05:00;0.50;99.90
22966;DHT22;11649;48.090;9.754;2024-01-30T05:07:27;0.50;99.90
22966;DHT22;11649;48.090;9.754;2024-01-30T05:09:54;0.40;99.90
22966;DHT22;11649;48.090;9.754;2024-01-30T05:12:25;0.50;99.90
22966;DHT22;11649;48.090;9.754;2024-01-30T05:14:51;0.30;99.90
22966;DHT22;11649;48.090;9.754;2024-01-30T05:17:18;0.20;99.90
22966;DHT22;11649;48.090;9.754;2024-01-30T05:19:45;0.10;99.90
22966;DHT22;11649;48.090;9.754;2024-01-30T05:22:12;0.20;99.90
22966;DHT22;11649;48.090;9.754;2024-01-30T05:24:42;0.20;99.90
22966;DHT22;11649;48.090;9.754;2024-01-30T05:27:09;0.20;99.90
22966;DHT22;11649;48.090;9.754;2024-01-30T05:29:36;0.20;99.90
22966;DHT22;11649;48.090;9.754;2024-01-30T05:32:03;0.20;99.90
22966;DHT22;11649;48.090;9.754;2024-01-30T05:34:32;0.10;99.90
22966;DHT22;11649;48.090;9.754;2024-01-30T05:36:59;0.10;99.90
22966;DHT22;11649;48.090;9.754;2024-01-30T05:39:25;0.10;99.90
22966;DHT22;11649;48.090;9.754;2024-01-30T05:41:52;0.10;99.90
22966;DHT22;11649;48.090;9.754;2024-01-30T05:44:19;0.10;99.90
22966;DHT22;11649;48.090;9.754;2024-01-30T05:46:46;0.00;99.90
22966;DHT22;11649;48.090;9.754;2024-01-30T05:49:12;0.10;99.90
22966;DHT22;11649;48.090;9.754;2024-01-30T05:51:39;0.10;99.90
22966;DHT22;11649;48.090;9.754;2024-01-30T05:54:06;0.10;99.90
22966;DHT22;11649;48.090;9.754;2024-01-30T05:56:33;0.10;99.90
22966;DHT22;11649;48.090;9.754;2024-01-30T05:59:00;-0.10;99.90
22966;DHT22;11649;48.090;9.754;2024-01-30T06:01:26;-0.10;99.90
22966;DHT22;11649;48.090;9.754;2024-01-30T06:03:53;0.00;99.90
22966;DHT22;11649;48.090;9.754;2024-01-30T06:06:20;0.00;99.90
22966;DHT22;11649;48.090;9.754;2024-01-30T06:08:47;0.00;99.90
22966;DHT22;11649;48.090;9.754;2024-01-30T06:11:14;-0.10;99.90
22966;DHT22;11649;48.090;9.754;2024-01-30T06:13:41;-0.10;99.90
22966;DHT22;11649;48.090;9.754;2024-01-30T06:16:11;-0.10;99.90
22966;DHT22;11649;48.090;9.754;2024-01-30T06:18:41;0.10;99.90
22966;DHT22;11649;48.090;9.754;2024-01-30T06:21:07;0.10;99.90
22966;DHT22;11649;48.090;9.754;2024-01-30T06:23:37;0.10;99.90
22966;DHT22;11649;48.090;9.754;2024-01-30T06:26:06;0.10;99.90
22966;DHT22;11649;48.090;9.754;2024-01-30T06:28:33;0.10;99.90
22966;DHT22;11649;48.090;9.754;2024-01-30T06:31:01;-0.20;99.90
22966;DHT22;11649;48.090;9.754;2024-01-30T06:33:28;-0.10;99.90
22966;DHT22;11649;48.090;9.754;2024-01-30T06:35:55;0.00;99.90
22966;DHT22;11649;48.090;9.754;2024-01-30T06:38:22;0.00;99.90
22966;DHT22;11649;48.090;9.754;2024-01-30T06:40:48;0.00;99.90
22966;DHT22;11649;48.090;9.754;2024-01-30T06:43:15;0.00;99.90
22966;DHT22;11649;48.090;9.754;2024-01-30T06:45:42;0.00;99.90
22966;DHT22;11649;48.090;9.754;2024-01-30T06:48:09;0.00;99.90
22966;DHT22;11649;48.090;9.754;2024-01-30T06:50:36;-0.20;99.90
22966;DHT22;11649;48.090;9.754;2024-01-30T06:53:04;-0.10;99.90
22966;DHT22;11649;48.090;9.754;2024-01-30T06:55:30;-0.10;99.90
22966;DHT22;11649;48.090;9.754;2024-01-30T06:57:57;0.00;99.90
22966;DHT22;11649;48.090;9.754;2024-01-30T07:00:24;-0.10;99.90
22966;DHT22;11649;48.090;9.754;2024-01-30T07:02:51;0.00;99.90
22966;DHT22;11649;48.090;9.754;2024-01-30T07:05:18;0.10;99.90
22966;DHT22;11649;48.090;9.754;2024-01-30T07:07:44;0.00;99.90
22966;DHT22;11649;48.090;9.754;2024-01-30T07:10:11;0.10;99.90
22966;DHT22;11649;48.090;9.754;2024-01-30T07:12:38;0.00;99.90
22966;DHT22;11649;48.090;9.754;2024-01-30T07:15:05;-0.10;99.90
22966;DHT22;11649;48.090;9.754;2024-01-30T07:17:35;-0.10;99.90
22966;DHT22;11649;48.090;9.754;2024-01-30T07:20:02;0.00;99.90
22966;DHT22;11649;48.090;9.754;2024-01-30T07:22:30;0.00;99.90
22966;DHT22;11649;48.090;9.754;2024-01-30T07:24:57;-0.10;99.90
22966;DHT22;11649;48.090;9.754;2024-01-30T07:27:24;0.00;99.90
22966;DHT22;11649;48.090;9.754;2024-01-30T07:29:51;0.10;99.90
22966;DHT22;11649;48.090;9.754;2024-01-30T07:32:18;0.10;99.90
22966;DHT22;11649;48.090;9.754;2024-01-30T07:34:45;0.00;99.90
22966;DHT22;11649;48.090;9.754;2024-01-30T07:37:31;0.10;99.90
22966;DHT22;11649;48.090;9.754;2024-01-30T07:39:58;0.20;99.90
22966;DHT22;11649;48.090;9.754;2024-01-30T07:42:25;0.30;99.90
22966;DHT22;11649;48.090;9.754;2024-01-30T07:44:52;0.50;99.90
22966;DHT22;11649;48.090;9.754;2024-01-30T07:47:19;0.60;99.90
22966;DHT22;11649;48.090;9.754;2024-01-30T07:49:45;0.70;99.90
22966;DHT22;11649;48.090;9.754;2024-01-30T07:52:12;0.80;99.90
22966;DHT22;11649;48.090;9.754;2024-01-30T07:54:39;0.90;99.90
22966;DHT22;11649;48.090;9.754;2024-01-30T07:57:06;0.90;99.90
22966;DHT22;11649;48.090;9.754;2024-01-30T07:59:32;0.90;99.90
22966;DHT22;11649;48.090;9.754;2024-01-30T08:01:59;1.00;99.90
22966;DHT22;11649;48.090;9.754;2024-01-30T08:04:26;1.10;99.90
22966;DHT22;11649;48.090;9.754;2024-01-30T08:06:53;1.10;99.90
22966;DHT22;11649;48.090;9.754;2024-01-30T08:09:20;1.20;99.90
22966;DHT22;11649;48.090;9.754;2024-01-30T08:11:47;1.30;99.90
22966;DHT22;11649;48.090;9.754;2024-01-30T08:14:14;1.40;99.90
22966;DHT22;11649;48.090;9.754;2024-01-30T08:16:41;1.50;99.90
22966;DHT22;11649;48.090;9.754;2024-01-30T08:19:07;1.60;99.90
22966;DHT22;11649;48.090;9.754;2024-01-30T08:21:34;1.60;99.90
22966;DHT22;11649;48.090;9.754;2024-01-30T08:24:06;1.70;99.90
22966;DHT22;11649;48.090;9.754;2024-01-30T08:26:33;1.90;99.90
22966;DHT22;11649;48.090;9.754;2024-01-30T08:29:01;2.00;99.90
22966;DHT22;11649;48.090;9.754;2024-01-30T08:31:28;2.10;99.90
22966;DHT22;11649;48.090;9.754;2024-01-30T08:33:55;2.10;99.90
22966;DHT22;11649;48.090;9.754;2024-01-30T08:36:22;2.40;99.90
22966;DHT22;11649;48.090;9.754;2024-01-30T08:38:49;2.60;99.90
22966;DHT22;11649;48.090;9.754;2024-01-30T08:41:16;2.80;99.90
22966;DHT22;11649;48.090;9.754;2024-01-30T08:43:42;3.00;99.90
22966;DHT22;11649;48.090;9.754;2024-01-30T08:46:11;3.20;99.90
22966;DHT22;11649;48.090;9.754;2024-01-30T08:48:38;3.30;99.90
22966;DHT22;11649;48.090;9.754;2024-01-30T08:51:05;3.40;99.90
22966;DHT22;11649;48.090;9.754;2024-01-30T08:53:35;3.50;99.90
22966;DHT22;11649;48.090;9.754;2024-01-30T08:56:03;3.60;99.90
22966;DHT22;11649;48.090;9.754;2024-01-30T08:58:30;3.70;99.90
22966;DHT22;11649;48.090;9.754;2024-01-30T09:00:57;3.70;99.90
22966;DHT22;11649;48.090;9.754;2024-01-30T09:03:24;3.70;99.90
22966;DHT22;11649;48.090;9.754;2024-01-30T09:05:51;3.80;99.90
22966;DHT22;11649;48.090;9.754;2024-01-30T09:08:18;3.90;99.90
22966;DHT22;11649;48.090;9.754;2024-01-30T09:10:46;3.90;99.90
22966;DHT22;11649;48.090;9.754;2024-01-30T09:13:13;4.10;99.90
22966;DHT22;11649;48.090;9.754;2024-01-30T09:15:40;4.10;99.90
22966;DHT22;11649;48.090;9.754;2024-01-30T09:18:06;4.10;99.90
22966;DHT22;11649;48.090;9.754;2024-01-30T09:20:33;4.30;99.90
22966;DHT22;11649;48.090;9.754;2024-01-30T09:23:00;4.40;99.90
22966;DHT22;11649;48.090;9.754;2024-01-30T09:25:27;4.40;99.90
22966;DHT22;11649;48.090;9.754;2024-01-30T09:27:54;4.50;99.90
22966;DHT22;11649;48.090;9.754;2024-01-30T09:30:21;4.60;99.90
22966;DHT22;11649;48.090;9.754;2024-01-30T09:32:48;4.70;99.90
22966;DHT22;11649;48.090;9.754;2024-01-30T09:35:15;4.90;99.90
22966;DHT22;11649;48.090;9.754;2024-01-30T09:37:42;5.10;99.90
22966;DHT22;11649;48.090;9.754;2024-01-30T09:40:09;5.10;99.90
22966;DHT22;11649;48.090;9.754;2024-01-30T09:42:36;5.30;99.90
22966;DHT22;11649;48.090;9.754;2024-01-30T09:45:04;5.60;99.80
22966;DHT22;11649;48.090;9.754;2024-01-30T09:47:34;5.80;99.00
22966;DHT22;11649;48.090;9.754;2024-01-30T09:50:06;5.90;98.90
22966;DHT22;11649;48.090;9.754;2024-01-30T09:52:33;6.00;98.40
22966;DHT22;11649;48.090;9.754;2024-01-30T09:55:00;5.90;98.20
22966;DHT22;11649;48.090;9.754;2024-01-30T09:57:28;5.90;97.60
22966;DHT22;11649;48.090;9.754;2024-01-30T09:59:55;5.80;97.30
22966;DHT22;11649;48.090;9.754;2024-01-30T10:02:22;5.80;97.50
22966;DHT22;11649;48.090;9.754;2024-01-30T10:04:50;5.90;97.30
22966;DHT22;11649;48.090;9.754;2024-01-30T10:07:18;6.00;96.50
22966;DHT22;11649;48.090;9.754;2024-01-30T10:09:46;6.00;96.00
22966;DHT22;11649;48.090;9.754;2024-01-30T10:12:13;6.10;97.80
22966;DHT22;11649;48.090;9.754;2024-01-30T10:14:40;6.30;95.90
22966;DHT22;11649;48.090;9.754;2024-01-30T10:17:11;6.40;95.40
22966;DHT22;11649;48.090;9.754;2024-01-30T10:19:50;6.50;94.70
22966;DHT22;11649;48.090;9.754;2024-01-30T10:22:18;6.70;96.00
22966;DHT22;11649;48.090;9.754;2024-01-30T10:24:46;6.80;94.10
22966;DHT22;11649;48.090;9.754;2024-01-30T10:27:12;6.90;94.80
22966;DHT22;11649;48.090;9.754;2024-01-30T10:29:39;6.90;93.80
22966;DHT22;11649;48.090;9.754;2024-01-30T10:32:07;7.30;94.30
22966;DHT22;11649;48.090;9.754;2024-01-30T10:34:34;7.60;91.90
22966;DHT22;11649;48.090;9.754;2024-01-30T10:37:10;7.70;91.70
22966;DHT22;11649;48.090;9.754;2024-01-30T10:39:44;8.20;91.00
22966;DHT22;11649;48.090;9.754;2024-01-30T10:42:17;8.50;91.00
22966;DHT22;11649;48.090;9.754;2024-01-30T10:45:06;9.00;90.00
22966;DHT22;11649;48.090;9.754;2024-01-30T10:47:36;9.30;84.90
22966;DHT22;11649;48.090;9.754;2024-01-30T10:50:03;9.10;85.90
22966;DHT22;11649;48.090;9.754;2024-01-30T10:52:31;9.00;85.10
22966;DHT22;11649;48.090;9.754;2024-01-30T10:54:59;9.00;88.10
22966;DHT22;11649;48.090;9.754;2024-01-30T10:57:27;8.80;88.10
22966;DHT22;11649;48.090;9.754;2024-01-30T10:59:59;8.80;87.80
22966;DHT22;11649;48.090;9.754;2024-01-30T11:02:27;9.10;86.60
22966;DHT22;11649;48.090;9.754;2024-01-30T11:04:58;9.10;87.10
22966;DHT22;11649;48.090;9.754;2024-01-30T11:07:28;9.30;86.70
22966;DHT22;11649;48.090;9.754;2024-01-30T11:09:59;9.90;82.60
22966;DHT22;11649;48.090;9.754;2024-01-30T11:12:31;9.40;78.70
22966;DHT22;11649;48.090;9.754;2024-01-30T11:15:08;9.90;80.90
22966;DHT22;11649;48.090;9.754;2024-01-30T11:20:21;9.60;82.20
22966;DHT22;11649;48.090;9.754;2024-01-30T11:22:51;9.40;84.10
22966;DHT22;11649;48.090;9.754;2024-01-30T11:25:23;9.20;87.10
22966;DHT22;11649;48.090;9.754;2024-01-30T11:27:55;9.20;90.40
22966;DHT22;11649;48.090;9.754;2024-01-30T11:30:31;9.40;86.60
22966;DHT22;11649;48.090;9.754;2024-01-30T11:35:41;9.40;88.70
22966;DHT22;11649;48.090;9.754;2024-01-30T11:38:10;9.30;89.00
22966;DHT22;11649;48.090;9.754;2024-01-30T11:40:38;9.30;87.60
22966;DHT22;11649;48.090;9.754;2024-01-30T11:43:07;9.20;90.20
22966;DHT22;11649;48.090;9.754;2024-01-30T11:45:35;9.20;87.90
22966;DHT22;11649;48.090;9.754;2024-01-30T11:48:03;9.10;90.20
22966;DHT22;11649;48.090;9.754;2024-01-30T11:50:32;9.20;89.70
22966;DHT22;11649;48.090;9.754;2024-01-30T11:53:00;9.10;90.40
22966;DHT22;11649;48.090;9.754;2024-01-30T11:55:28;9.10;90.50
22966;DHT22;11649;48.090;9.754;2024-01-30T11:58:00;9.10;89.70
22966;DHT22;11649;48.090;9.754;2024-01-30T12:00:26;8.90;91.30
22966;DHT22;11649;48.090;9.754;2024-01-30T12:02:55;8.70;91.00
22966;DHT22;11649;48.090;9.754;2024-01-30T12:05:26;8.70;91.10
22966;DHT22;11649;48.090;9.754;2024-01-30T12:07:53;8.80;90.50
22966;DHT22;11649;48.090;9.754;2024-01-30T12:10:21;8.70;92.30
22966;DHT22;11649;48.090;9.754;2024-01-30T12:12:49;8.70;91.60
22966;DHT22;11649;48.090;9.754;2024-01-30T12:15:18;8.80;90.70
22966;DHT22;11649;48.090;9.754;2024-01-30T12:17:48;8.80;90.90
22966;DHT22;11649;48.090;9.754;2024-01-30T12:20:18;8.80;90.20
22966;DHT22;11649;48.090;9.754;2024-01-30T12:22:49;8.70;92.10
22966;DHT22;11649;48.090;9.754;2024-01-30T12:25:18;8.80;90.70
22966;DHT22;11649;48.090;9.754;2024-01-30T12:27:47;8.90;90.50
22966;DHT22;11649;48.090;9.754;2024-01-30T12:30:18;8.90;90.40
22966;DHT22;11649;48.090;9.754;2024-01-30T12:32:46;8.80;91.30
22966;DHT22;11649;48.090;9.754;2024-01-30T12:35:16;8.80;91.90
22966;DHT22;11649;48.090;9.754;2024-01-30T12:37:44;8.70;92.10
22966;DHT22;11649;48.090;9.754;2024-01-30T12:40:13;8.70;93.20
22966;DHT22;11649;48.090;9.754;2024-01-30T12:42:42;8.80;91.30
22966;DHT22;11649;48.090;9.754;2024-01-30T12:45:09;8.90;91.60
22966;DHT22;11649;48.090;9.754;2024-01-30T12:47:37;9.10;91.30
22966;DHT22;11649;48.090;9.754;2024-01-30T12:50:04;9.30;90.30
22966;DHT22;11649;48.090;9.754;2024-01-30T12:52:31;9.50;89.90
22966;DHT22;11649;48.090;9.754;2024-01-30T12:54:58;9.60;91.10
22966;DHT22;11649;48.090;9.754;2024-01-30T12:57:25;9.70;90.50
22966;DHT22;11649;48.090;9.754;2024-01-30T12:59:52;9.90;88.00
22966;DHT22;11649;48.090;9.754;2024-01-30T13:02:20;10.00;87.40
22966;DHT22;11649;48.090;9.754;2024-01-30T13:04:47;10.10;86.70
22966;DHT22;11649;48.090;9.754;2024-01-30T13:07:16;10.20;85.70
22966;DHT22;11649;48.090;9.754;2024-01-30T13:09:43;10.10;85.90
22966;DHT22;11649;48.090;9.754;2024-01-30T13:12:10;10.20;85.00
22966;DHT22;11649;48.090;9.754;2024-01-30T13:14:37;10.10;85.10
22966;DHT22;11649;48.090;9.754;2024-01-30T13:17:04;10.10;84.90
22966;DHT22;11649;48.090;9.754;2024-01-30T13:19:31;10.10;84.20
22966;DHT22;11649;48.090;9.754;2024-01-30T13:21:58;10.00;85.10
22966;DHT22;11649;48.090;9.754;2024-01-30T13:24:25;10.00;84.90
22966;DHT22;11649;48.090;9.754;2024-01-30T13:26:52;9.90;87.10
22966;DHT22;11649;48.090;9.754;2024-01-30T13:29:19;10.00;85.20
22966;DHT22;11649;48.090;9.754;2024-01-30T13:31:45;10.10;85.90
22966;DHT22;11649;48.090;9.754;2024-01-30T13:34:13;10.20;87.00
22966;DHT22;11649;48.090;9.754;2024-01-30T13:36:41;10.40;86.10
22966;DHT22;11649;48.090;9.754;2024-01-30T13:39:08;10.60;81.60
22966;DHT22;11649;48.090;9.754;2024-01-30T13:41:37;10.70;81.90
22966;DHT22;11649;48.090;9.754;2024-01-30T13:44:04;10.60;82.90
22966;DHT22;11649;48.090;9.754;2024-01-30T13:46:31;10.50;81.90
22966;DHT22;11649;48.090;9.754;2024-01-30T13:48:58;10.10;84.90
22966;DHT22;11649;48.090;9.754;2024-01-30T13:51:27;10.20;86.90
22966;DHT22;11649;48.090;9.754;2024-01-30T13:53:54;10.00;85.90
22966;DHT22;11649;48.090;9.754;2024-01-30T13:56:20;9.90;88.20
22966;DHT22;11649;48.090;9.754;2024-01-30T13:58:51;10.10;86.50
22966;DHT22;11649;48.090;9.754;2024-01-30T14:01:17;10.30;85.40
22966;DHT22;11649;48.090;9.754;2024-01-30T14:03:45;10.40;85.70
22966;DHT22;11649;48.090;9.754;2024-01-30T14:06:12;10.40;87.20
22966;DHT22;11649;48.090;9.754;2024-01-30T14:08:39;11.20;83.80
22966;DHT22;11649;48.090;9.754;2024-01-30T14:11:09;10.80;82.50
22966;DHT22;11649;48.090;9.754;2024-01-30T14:13:36;10.50;83.10
22966;DHT22;11649;48.090;9.754;2024-01-30T14:16:03;10.10;84.30
22966;DHT22;11649;48.090;9.754;2024-01-30T14:18:33;10.10;85.30
22966;DHT22;11649;48.090;9.754;2024-01-30T14:20:59;10.20;86.00
22966;DHT22;11649;48.090;9.754;2024-01-30T14:23:26;9.90;88.20
22966;DHT22;11649;48.090;9.754;2024-01-30T14:25:53;9.70;90.20
22966;DHT22;11649;48.090;9.754;2024-01-30T14:28:20;9.90;87.40
22966;DHT22;11649;48.090;9.754;2024-01-30T14:30:47;9.90;87.60
22966;DHT22;11649;48.090;9.754;2024-01-30T14:33:14;9.90;89.00
22966;DHT22;11649;48.090;9.754;2024-01-30T14:35:41;9.90;89.00
22966;DHT22;11649;48.090;9.754;2024-01-30T14:38:07;10.40;87.00
22966;DHT22;11649;48.090;9.754;2024-01-30T14:40:34;11.00;82.40
22966;DHT22;11649;48.090;9.754;2024-01-30T14:43:02;11.50;78.70
22966;DHT22;11649;48.090;9.754;2024-01-30T14:45:30;11.70;79.10
22966;DHT22;11649;48.090;9.754;2024-01-30T14:47:58;11.80;77.80
22966;DHT22;11649;48.090;9.754;2024-01-30T14:50:26;11.60;76.50
22966;DHT22;11649;48.090;9.754;2024-01-30T14:52:55;11.10;78.80
22966;DHT22;11649;48.090;9.754;2024-01-30T14:55:21;10.30;83.30
22966;DHT22;11649;48.090;9.754;2024-01-30T14:57:48;9.80;87.00
22966;DHT22;11649;48.090;9.754;2024-01-30T15:00:16;10.10;86.20
22966;DHT22;11649;48.090;9.754;2024-01-30T15:02:43;10.20;84.50
22966;DHT22;11649;48.090;9.754;2024-01-30T15:05:10;10.10;84.50
22966;DHT22;11649;48.090;9.754;2024-01-30T15:07:38;9.70;87.40
22966;DHT22;11649;48.090;9.754;2024-01-30T15:10:07;9.60;89.10
22966;DHT22;11649;48.090;9.754;2024-01-30T15:12:36;9.30;90.80
22966;DHT22;11649;48.090;9.754;2024-01-30T15:15:04;9.20;91.50
22966;DHT22;11649;48.090;9.754;2024-01-30T15:17:31;9.20;91.60
22966;DHT22;11649;48.090;9.754;2024-01-30T15:19:58;9.20;91.70
22966;DHT22;11649;48.090;9.754;2024-01-30T15:22:27;9.20;91.80
22966;DHT22;11649;48.090;9.754;2024-01-30T15:24:53;9.20;91.80
22966;DHT22;11649;48.090;9.754;2024-01-30T15:27:20;9.10;92.10
22966;DHT22;11649;48.090;9.754;2024-01-30T15:29:47;9.10;92.40
22966;DHT22;11649;48.090;9.754;2024-01-30T15:32:14;8.90;93.30
22966;DHT22;11649;48.090;9.754;2024-01-30T15:34:41;8.90;93.50
22966;DHT22;11649;48.090;9.754;2024-01-30T15:37:08;8.80;94.30
22966;DHT22;11649;48.090;9.754;2024-01-30T15:39:35;8.80;94.30
22966;DHT22;11649;48.090;9.754;2024-01-30T15:42:02;8.50;95.30
22966;DHT22;11649;48.090;9.754;2024-01-30T15:44:29;8.60;95.60
22966;DHT22;11649;48.090;9.754;2024-01-30T15:46:57;8.50;95.30
22966;DHT22;11649;48.090;9.754;2024-01-30T15:49:25;8.40;95.60